Time;durP1;ratioP1;P1;durP2;ratioP2;P2;SDS_P1;SDS_P2;PMS_P1;PMS_P2;Temp;Humidity;BMP_temperature;BMP_pressure;BME280_temperature;BME280_humidity;BME280_pressure;Samples;Min_cycle;Max_cycle;Signal;HPM_P1;HPM_P2
2023/09/18 00:02:41;;;;;;;14.63;9.73;;;;;;;13.51;100.00;100885.84;10411221;28;20041;-75
2023/09/18 00:07:43;;;;;;;10.52;9.30;;;;;;;13.74;100.00;100913.41;10414753;28;20060;-75
2023/09/18 00:12:44;;;;;;;13.32;9.45;;;;;;;13.78;100.00;100908.56;10419421;28;20044;-75
2023/09/18 00:17:45;;;;;;;12.43;9.50;;;;;;;13.78;100.00;100908.56;10418978;28;20516;-77
2023/09/18 00:22:46;;;;;;;21.33;9.50;;;;;;;13.67;100.00;100912.44;10418674;28;20037;-75
2023/09/18 00:27:47;;;;;;;11.68;8.38;;;;;;;13.33;100.00;100854.88;10418899;28;20048;-75
2023/09/18 00:32:49;;;;;;;12.93;9.15;;;;;;;13.61;100.00;100907.78;10418257;28;20040;-75
2023/09/18 00:37:50;;;;;;;15.20;9.63;;;;;;;13.62;100.00;100910.31;10418519;28;20096;-75
2023/09/18 00:42:51;;;;;;;11.88;8.80;;;;;;;13.65;100.00;100907.28;10418998;28;20045;-75
2023/09/18 00:47:52;;;;;;;10.93;9.73;;;;;;;13.44;100.00;100872.34;10416895;28;20519;-75
2023/09/18 00:52:53;;;;;;;11.93;9.38;;;;;;;13.72;100.00;100926.09;10417824;28;20043;-75
2023/09/18 00:57:55;;;;;;;11.10;9.15;;;;;;;13.74;100.00;100912.59;10417363;28;20571;-76
2023/09/18 01:02:56;;;;;;;12.77;9.48;;;;;;;13.54;100.00;100880.97;10418059;28;20051;-75
2023/09/18 01:07:57;;;;;;;12.25;8.93;;;;;;;13.57;100.00;100888.63;10417232;28;20045;-75
2023/09/18 01:13:15;;;;;;;13.98;8.75;;;;;;;13.40;100.00;100861.19;10417203;28;20041;-75
2023/09/18 01:18:18;;;;;;;15.88;9.07;;;;;;;13.61;100.00;100916.66;10414844;28;20049;-76
2023/09/18 01:23:18;;;;;;;9.82;8.80;;;;;;;13.64;100.00;100918.97;10416741;28;20041;-75
2023/09/18 01:28:19;;;;;;;16.17;9.95;;;;;;;13.64;100.00;100910.97;10415405;28;20481;-75
2023/09/18 01:33:21;;;;;;;16.23;9.95;;;;;;;13.65;100.00;100917.97;10416581;28;20041;-75
2023/09/18 01:38:23;;;;;;;14.55;9.23;;;;;;;13.23;100.00;100860.41;10416320;28;20083;-76
2023/09/18 01:43:24;;;;;;;22.45;10.13;;;;;;;13.56;100.00;100931.53;10414629;28;20029;-76
2023/09/18 01:48:25;;;;;;;14.55;10.00;;;;;;;13.29;100.00;100882.09;10415898;28;20041;-75
2023/09/18 01:53:26;;;;;;;20.02;10.23;;;;;;;13.53;100.00;100930.03;10415213;28;20053;-75
2023/09/18 01:58:27;;;;;;;19.10;10.00;;;;;;;13.42;100.00;100925.06;10413605;28;20060;-75
2023/09/18 02:03:27;;;;;;;22.42;10.57;;;;;;;13.51;100.00;100931.22;10413620;28;20049;-75
2023/09/18 02:08:28;;;;;;;14.65;9.30;;;;;;;13.56;100.00;100931.53;10414485;28;20394;-75
2023/09/18 02:13:29;;;;;;;15.38;9.45;;;;;;;13.27;100.00;100873.44;10413307;28;20049;-75
2023/09/18 02:18:30;;;;;;;32.03;10.00;;;;;;;13.19;100.00;100869.75;10414496;28;20048;-75
2023/09/18 02:23:30;;;;;;;15.73;9.98;;;;;;;13.51;100.00;100926.69;10414973;28;20052;-75
2023/09/18 02:28:31;;;;;;;16.30;9.57;;;;;;;13.46;100.00;100931.72;10413741;28;20489;-75
2023/09/18 02:33:32;;;;;;;35.78;11.55;;;;;;;13.45;100.00;100932.72;10413777;28;20065;-78
2023/09/18 02:38:33;;;;;;;14.32;9.50;;;;;;;13.55;100.00;100946.72;10412560;28;20049;-72
2023/09/18 02:43:34;;;;;;;13.02;10.05;;;;;;;13.44;100.00;100926.56;10413289;28;20033;-76
2023/09/18 02:48:35;;;;;;;28.45;10.75;;;;;;;13.46;100.00;100945.91;10412546;28;20068;-74
2023/09/18 02:53:36;;;;;;;32.63;10.95;;;;;;;13.52;100.00;100957.75;10411035;28;20041;-76
2023/09/18 02:58:36;;;;;;;82.57;11.73;;;;;;;13.42;100.00;100951.75;10408071;28;20065;-77
2023/09/18 03:03:37;;;;;;;32.15;10.95;;;;;;;13.05;100.00;100894.47;10408601;28;20045;-77
2023/09/18 03:08:40;;;;;;;22.95;10.55;;;;;;;13.53;100.00;100969.25;10410050;28;20041;-75
2023/09/18 03:13:47;;;;;;;21.23;10.43;;;;;;;13.40;100.00;100941.25;10408412;28;20041;-75
2023/09/18 03:18:48;;;;;;;26.77;11.10;;;;;;;13.15;100.00;100904.94;10408288;28;20041;-75
2023/09/18 03:23:50;;;;;;;26.42;10.60;;;;;;;13.15;100.00;100912.94;10408599;28;20041;-75
2023/09/18 03:28:50;;;;;;;33.22;10.90;;;;;;;13.55;100.00;100968.06;10412781;28;20038;-74
2023/09/18 03:33:51;;;;;;;28.35;11.02;;;;;;;13.77;100.00;100987.84;10409894;28;20041;-76
2023/09/18 03:38:52;;;;;;;24.60;11.63;;;;;;;13.87;100.00;100990.28;10411687;28;20064;-76
2023/09/18 03:43:53;;;;;;;26.75;11.98;;;;;;;13.91;100.00;101003.16;10418125;28;20040;-74
2023/09/18 03:48:54;;;;;;;25.52;11.75;;;;;;;14.03;100.00;100998.25;10420989;28;20099;-77
2023/09/18 03:53:55;;;;;;;25.58;11.27;;;;;;;13.74;100.00;100945.47;10419497;28;20104;-80
2023/09/18 03:58:58;;;;;;;17.52;10.85;;;;;;;13.93;100.00;100952.19;10419754;28;20064;-75
2023/09/18 04:04:00;;;;;;;18.52;10.65;;;;;;;13.95;100.00;100944.03;10420962;28;20045;-79
2023/09/18 04:09:01;;;;;;;22.60;11.88;;;;;;;14.39;100.00;100979.00;10417696;28;20041;-76
2023/09/18 04:14:03;;;;;;;13.43;10.80;;;;;;;14.67;100.00;100999.88;10419348;28;20123;-69
2023/09/18 04:19:04;;;;;;;34.00;11.57;;;;;;;14.74;100.00;100987.44;10418646;28;20118;-80
2023/09/18 04:24:05;;;;;;;17.48;11.15;;;;;;;14.97;100.00;101009.66;10417972;28;20037;-75
2023/09/18 04:29:05;;;;;;;20.55;11.38;;;;;;;15.05;100.00;100988.19;10419124;28;20093;-76
2023/09/18 04:34:06;;;;;;;14.00;10.85;;;;;;;15.25;100.00;100993.00;10417987;28;20046;-69
2023/09/18 04:39:08;;;;;;;14.70;11.07;;;;;;;14.88;100.00;100948.41;10417665;28;20048;-68
2023/09/18 04:44:12;;;;;;;12.20;10.38;;;;;;;15.24;100.00;101007.41;10418033;28;20045;-73
2023/09/18 04:49:14;;;;;;;14.45;11.35;;;;;;;15.36;100.00;101008.63;10417852;28;20048;-74
2023/09/18 04:54:15;;;;;;;17.95;12.77;;;;;;;15.43;100.00;100985.44;10415847;28;20095;-74
2023/09/18 04:59:16;;;;;;;18.08;12.15;;;;;;;15.65;99.86;100991.75;10417347;28;20123;-76
2023/09/18 05:04:18;;;;;;;18.67;11.68;;;;;;;16.19;96.59;100948.53;10416079;28;20099;-74
2023/09/18 05:09:19;;;;;;;13.82;10.40;;;;;;;16.91;93.18;100953.97;10417083;28;20037;-75
2023/09/18 05:14:20;;;;;;;14.80;11.07;;;;;;;17.27;91.30;100961.84;10417606;28;20083;-74
2023/09/18 05:19:21;;;;;;;16.08;14.10;;;;;;;17.82;89.22;101002.28;10416939;28;20060;-74
2023/09/18 05:24:27;;;;;;;17.17;14.95;;;;;;;18.16;87.49;101004.09;10416309;28;20038;-74
2023/09/18 05:29:27;;;;;;;16.60;14.60;;;;;;;18.17;86.73;101011.94;10416592;28;20523;-75
2023/09/18 05:34:28;;;;;;;15.75;14.07;;;;;;;18.14;85.98;100990.81;10416661;28;20052;-74
2023/09/18 05:39:29;;;;;;;24.13;12.85;;;;;;;18.38;85.00;100989.44;10416063;28;20048;-74
2023/09/18 05:44:29;;;;;;;16.48;14.43;;;;;;;18.51;84.08;101003.94;10415407;28;20051;-75
2023/09/18 05:49:30;;;;;;;18.20;15.95;;;;;;;18.78;82.81;101010.22;10415581;28;20035;-75
2023/09/18 05:54:31;;;;;;;16.80;15.10;;;;;;;18.66;81.96;100964.22;10415690;28;20043;-77
2023/09/18 05:59:32;;;;;;;37.83;14.02;;;;;;;19.12;81.55;101003.81;10415609;28;20088;-74
2023/09/18 06:04:36;;;;;;;16.13;13.55;;;;;;;19.27;80.08;101012.50;10414315;28;20454;-75
2023/09/18 06:09:37;;;;;;;;;;;;;;;19.78;78.66;101014.50;10414175;28;20037;-74
2023/09/18 06:14:38;;;;;;;12.43;10.23;;;;;;;19.39;78.46;100993.84;10414345;28;20477;-75
2023/09/18 06:19:39;;;;;;;10.38;8.85;;;;;;;19.47;77.18;101006.25;10415338;28;20397;-75
2023/09/18 06:24:40;;;;;;;9.00;7.32;;;;;;;19.64;75.99;101009.34;10415040;28;20052;-75
2023/09/18 06:29:42;;;;;;;9.13;6.70;;;;;;;19.94;74.40;100991.63;10414356;28;20409;-75
2023/09/18 06:34:44;;;;;;;5.10;4.45;;;;;;;20.07;72.51;100993.41;10414051;28;20033;-75
2023/09/18 06:39:44;;;;;;;6.68;5.22;;;;;;;20.16;71.54;100991.31;10414227;28;20413;-75
2023/09/18 06:44:45;;;;;;;7.07;5.30;;;;;;;20.51;70.65;100992.56;10413717;28;20046;-75
2023/09/18 06:49:47;;;;;;;10.30;5.90;;;;;;;20.70;69.29;100979.16;10414190;28;20437;-75
2023/09/18 06:54:47;;;;;;;7.55;5.32;;;;;;;21.09;68.81;100993.38;10414076;28;20397;-75
2023/09/18 06:59:48;;;;;;;6.40;5.40;;;;;;;21.29;67.57;100994.03;10413587;28;20057;-78
2023/09/18 07:04:49;;;;;;;9.23;5.03;;;;;;;21.38;66.40;100997.31;10414039;28;20425;-75
2023/09/18 07:09:50;;;;;;;8.02;5.15;;;;;;;21.50;65.60;101000.91;10413658;28;20508;-74
2023/09/18 07:14:50;;;;;;;6.55;5.32;;;;;;;21.35;64.92;100998.53;10413630;28;20033;-75
2023/09/18 07:19:51;;;;;;;6.45;5.00;;;;;;;21.72;64.02;100995.91;10420742;28;20041;-74
2023/09/18 07:24:52;;;;;;;8.07;5.35;;;;;;;21.90;63.04;100992.38;10421817;28;20497;-74
2023/09/18 07:29:55;;;;;;;4.20;3.50;;;;;;;21.93;61.75;100991.91;10420567;28;20072;-74
2023/09/18 07:34:56;;;;;;;8.20;4.18;;;;;;;21.64;61.87;100986.22;10420816;28;20496;-74
2023/09/18 07:39:57;;;;;;;7.57;4.05;;;;;;;21.60;61.75;100971.50;10420043;28;20041;-74
2023/09/18 07:44:58;;;;;;;4.78;3.35;;;;;;;21.67;60.51;100930.84;10420963;28;20037;-74
2023/09/18 07:49:59;;;;;;;4.15;2.95;;;;;;;21.63;58.81;100933.19;10421064;28;20405;-74
2023/09/18 07:55:00;;;;;;;4.90;3.53;;;;;;;21.74;58.56;100984.84;10419693;28;20041;-74
2023/09/18 08:00:07;;;;;;;5.63;3.20;;;;;;;21.02;59.79;100971.84;10420081;28;20068;-74
2023/09/18 08:05:08;;;;;;;4.43;2.70;;;;;;;21.11;60.28;100975.91;10419998;28;20473;-75
2023/09/18 08:10:10;;;;;;;3.35;2.90;;;;;;;20.60;60.33;100919.44;10419834;28;20041;-74
2023/09/18 08:15:11;;;;;;;5.25;2.75;;;;;;;21.61;59.30;100981.25;10419473;28;20030;-74
2023/09/18 08:20:14;;;;;;;8.55;3.50;;;;;;;22.23;58.32;100967.59;10419299;28;20051;-74
2023/09/18 08:25:15;;;;;;;14.15;3.47;;;;;;;22.49;58.46;100965.53;10419250;28;20382;-75
2023/09/18 08:30:17;;;;;;;6.28;3.53;;;;;;;22.54;56.57;100925.06;10417577;28;20041;-75
2023/09/18 08:35:18;;;;;;;3.97;2.10;;;;;;;22.64;55.26;100917.19;10418752;28;20084;-74
2023/09/18 08:40:19;;;;;;;4.50;2.38;;;;;;;22.88;54.50;100982.22;10418978;28;20492;-75
2023/09/18 08:45:27;;;;;;;6.90;2.90;;;;;;;22.75;54.98;100972.44;10418334;28;20501;-74
2023/09/18 08:50:29;;;;;;;6.15;3.17;;;;;;;22.92;53.59;100980.72;10418203;28;20069;-74
2023/09/18 08:55:32;;;;;;;5.05;2.22;;;;;;;22.77;53.09;100925.09;10418701;28;20128;-74
2023/09/18 09:00:33;;;;;;;9.93;2.75;;;;;;;23.06;52.76;100968.59;10417846;28;20062;-74
2023/09/18 09:05:33;;;;;;;11.43;2.70;;;;;;;23.30;52.33;100965.88;10417083;28;20049;-74
2023/09/18 09:10:34;;;;;;;3.85;2.33;;;;;;;23.19;51.68;100938.56;10416632;28;20065;-74
2023/09/18 09:15:50;;;;;;;5.32;2.42;;;;;;;23.60;52.50;100961.13;10417105;28;20071;-75
2023/09/18 09:20:59;;;;;;;5.53;2.42;;;;;;;23.27;49.25;100893.16;10416915;28;20041;-75
2023/09/18 09:26:13;;;;;;;10.45;3.05;;;;;;;23.71;48.76;100902.50;10417603;28;20528;-74
2023/09/18 09:31:28;;;;;;;5.18;2.33;;;;;;;23.93;48.43;100916.22;10415732;28;20485;-74
2023/09/18 09:36:30;;;;;;;10.85;3.20;;;;;;;23.95;49.91;100949.38;10416185;28;20067;-74
2023/09/18 09:41:31;;;;;;;3.65;2.40;;;;;;;23.41;49.28;100936.03;10415909;28;20052;-74
2023/09/18 09:46:33;;;;;;;5.72;3.28;;;;;;;23.14;49.31;100938.44;10415998;28;20033;-75
2023/09/18 09:51:37;;;;;;;5.20;3.08;;;;;;;23.48;49.33;100944.03;10415219;28;20514;-74
2023/09/18 09:56:43;;;;;;;4.68;2.50;;;;;;;23.77;47.38;100925.94;10416143;28;20485;-77
2023/09/18 10:01:46;;;;;;;3.65;2.70;;;;;;;24.02;47.32;100924.78;10414234;28;20081;-75
2023/09/18 10:07:05;;;;;;;45.55;4.68;;;;;;;24.23;47.61;100915.97;10415137;28;20041;-74
2023/09/18 10:12:15;;;;;;;3.97;2.60;;;;;;;23.63;47.67;100873.88;10415613;28;20052;-74
2023/09/18 10:17:18;;;;;;;5.32;2.47;;;;;;;22.41;48.47;100827.84;10414155;28;20068;-74
2023/09/18 10:22:37;;;;;;;4.18;2.42;;;;;;;22.81;48.67;100917.31;10412920;28;20053;-74
2023/09/18 10:27:40;;;;;;;8.98;3.08;;;;;;;22.92;49.22;100856.09;10413349;28;20459;-74
2023/09/18 10:32:41;;;;;;;;;;;;;;;23.81;48.76;100910.00;10415786;28;20046;-74
2023/09/18 10:37:45;;;;;;;3.60;2.60;;;;;;;23.73;48.17;100905.81;10413885;28;20284;-75
2023/09/18 10:42:48;;;;;;;7.18;2.63;;;;;;;23.66;47.34;100861.69;10414053;28;20029;-74
2023/09/18 10:47:49;;;;;;;5.45;2.50;;;;;;;24.01;47.41;100888.69;10413890;28;20073;-74
2023/09/18 10:52:50;;;;;;;8.13;2.85;;;;;;;24.26;47.49;100901.06;10413648;28;20048;-74
2023/09/18 10:57:56;;;;;;;14.18;11.88;;;;;;;24.40;45.73;100898.84;10412560;28;20049;-75
2023/09/18 11:03:12;;;;;;;5.60;3.20;;;;;;;24.56;45.75;100896.19;10413524;28;20471;-74
2023/09/18 11:08:31;;;;;;;8.13;2.45;;;;;;;24.34;44.54;100830.06;10413826;28;20053;-75
2023/09/18 11:13:36;;;;;;;12.05;8.38;;;;;;;24.91;44.83;100892.34;10412765;28;20033;-75
2023/09/18 11:18:37;;;;;;;10.98;2.85;;;;;;;24.31;45.22;100831.38;10413212;28;20424;-74
2023/09/18 11:23:42;;;;;;;7.43;4.40;;;;;;;23.68;46.01;100890.22;10412320;28;20099;-74
2023/09/18 11:28:50;;;;;;;20.60;8.43;;;;;;;23.05;47.96;100896.50;10411849;28;20041;-74
2023/09/18 11:33:52;;;;;;;10.32;3.90;;;;;;;22.46;47.83;100890.22;10413322;28;20041;-74
2023/09/18 11:39:03;;;;;;;25.55;3.95;;;;;;;22.29;48.27;100895.50;10412739;28;20045;-74
2023/09/18 11:44:07;;;;;;;11.48;3.85;;;;;;;22.04;49.43;100890.19;10412654;28;20409;-74
2023/09/18 11:49:09;;;;;;;;;;;;;;;22.16;49.55;100885.63;10412530;28;20051;-74
2023/09/18 11:54:10;;;;;;;4.25;2.35;;;;;;;22.39;47.88;100862.44;10412379;28;19912;-74
2023/09/18 11:59:12;;;;;;;2.78;2.28;;;;;;;22.86;46.85;100867.88;10412434;28;20069;-74
2023/09/18 12:04:13;;;;;;;6.18;2.33;;;;;;;23.30;46.36;100868.28;10417387;28;20067;-74
2023/09/18 12:09:14;;;;;;;5.88;2.35;;;;;;;23.50;46.04;100863.28;10419711;28;20405;-77
2023/09/18 12:14:19;;;;;;;14.65;8.00;;;;;;;23.54;46.45;100861.72;10419717;28;20038;-74
2023/09/18 12:19:20;;;;;;;17.08;4.15;;;;;;;23.50;46.01;100840.78;10418668;28;20038;-75
2023/09/18 12:24:27;;;;;;;5.57;3.90;;;;;;;23.71;45.55;100866.44;10418534;28;20041;-75
2023/09/18 12:29:28;;;;;;;8.48;4.68;;;;;;;23.62;45.93;100855.91;10418581;28;20112;-75
2023/09/18 12:34:29;;;;;;;4.47;2.45;;;;;;;23.72;45.08;100851.78;10418588;28;20038;-79
2023/09/18 12:39:33;;;;;;;5.43;2.17;;;;;;;23.70;45.07;100854.75;10417408;28;20045;-75
2023/09/18 12:44:33;;;;;;;3.45;2.20;;;;;;;23.78;45.31;100850.81;10417067;28;20033;-75
2023/09/18 12:49:34;;;;;;;3.13;2.08;;;;;;;23.76;44.73;100852.97;10417547;28;20532;-75
2023/09/18 12:54:53;;;;;;;3.35;1.95;;;;;;;23.85;44.73;100863.19;10416637;28;20030;-76
2023/09/18 12:59:55;;;;;;;11.50;2.75;;;;;;;23.84;44.94;100844.41;10417214;28;20054;-75
2023/09/18 13:04:58;;;;;;;8.25;2.38;;;;;;;23.82;45.60;100854.72;10417291;28;20041;-75
2023/09/18 13:10:05;;;;;;;3.85;2.15;;;;;;;23.87;44.86;100849.34;10416833;28;20048;-75
2023/09/18 13:15:12;;;;;;;7.82;2.45;;;;;;;23.73;45.42;100831.75;10415807;28;20072;-75
2023/09/18 13:20:24;;;;;;;6.47;2.38;;;;;;;23.74;44.32;100833.38;10416831;28;20045;-75
2023/09/18 13:25:27;;;;;;;11.35;2.60;;;;;;;23.70;45.00;100849.34;10416343;28;20413;-75
2023/09/18 13:30:29;;;;;;;7.65;4.00;;;;;;;23.47;44.62;100825.81;10416723;28;20090;-75
2023/09/18 13:35:29;;;;;;;26.42;4.10;;;;;;;23.39;45.49;100824.31;10417298;28;20041;-75
2023/09/18 13:40:30;;;;;;;8.15;2.90;;;;;;;23.15;44.04;100777.47;10415614;28;20045;-75
2023/09/18 13:45:37;;;;;;;4.05;2.10;;;;;;;23.44;44.03;100854.22;10415946;28;20040;-75
2023/09/18 13:50:38;;;;;;;6.13;2.53;;;;;;;23.33;44.48;100862.38;10416592;28;20048;-75
2023/09/18 13:55:39;;;;;;;6.22;2.60;;;;;;;23.27;44.38;100849.78;10415168;28;20033;-75
2023/09/18 14:00:43;;;;;;;7.93;2.20;;;;;;;23.28;44.03;100870.44;10413945;28;20072;-75
2023/09/18 14:05:44;;;;;;;15.60;3.50;;;;;;;22.93;43.97;100838.75;10414599;28;20040;-74
2023/09/18 14:10:44;;;;;;;50.63;4.85;;;;;;;23.04;45.03;100875.06;10415506;28;20047;-74
2023/09/18 14:15:45;;;;;;;9.60;3.17;;;;;;;22.76;45.56;100869.28;10415061;28;20493;-74
2023/09/18 14:20:46;;;;;;;15.65;3.17;;;;;;;22.52;46.49;100873.03;10414249;28;20049;-78
2023/09/18 14:25:47;;;;;;;10.13;2.50;;;;;;;22.34;46.85;100876.66;10413131;28;20037;-75
2023/09/18 14:30:49;;;;;;;8.70;2.55;;;;;;;22.11;46.90;100877.41;10414193;28;20518;-74
2023/09/18 14:35:50;;;;;;;6.55;2.45;;;;;;;21.83;47.35;100865.31;10413699;28;20037;-74
2023/09/18 14:40:51;;;;;;;36.42;4.45;;;;;;;21.40;48.50;100833.03;10413983;28;20053;-74
2023/09/18 14:45:55;;;;;;;25.25;8.27;;;;;;;21.47;49.25;100881.59;10413719;28;20045;-74
2023/09/18 14:50:57;;;;;;;14.55;4.50;;;;;;;21.11;50.25;100875.13;10413179;28;20045;-74
2023/09/18 14:55:58;;;;;;;8.02;3.00;;;;;;;20.96;50.83;100889.81;10412712;28;20523;-74
2023/09/18 15:00:59;;;;;;;27.88;4.40;;;;;;;20.34;52.82;100842.19;10413068;28;20057;-74
2023/09/18 15:06:01;;;;;;;143.23;15.15;;;;;;;20.32;55.25;100890.16;10413873;28;20063;-74
2023/09/18 15:11:03;;;;;;;68.28;7.88;;;;;;;20.04;56.73;100904.84;10409941;28;20038;-68
2023/09/18 15:16:05;;;;;;;31.17;9.18;;;;;;;19.72;58.24;100891.34;10410465;28;20501;-81
2023/09/18 15:21:07;;;;;;;117.57;9.90;;;;;;;19.36;59.77;100887.31;10411089;28;20138;-72
2023/09/18 15:26:08;;;;;;;130.55;27.45;;;;;;;19.04;60.16;100862.13;10411897;28;20409;-86
2023/09/18 15:31:09;;;;;;;161.13;61.85;;;;;;;19.27;60.08;100914.72;10411962;28;20050;-87
2023/09/18 15:36:09;;;;;;;118.85;48.60;;;;;;;19.08;61.61;100922.59;10412434;28;20037;-80
2023/09/18 15:41:10;;;;;;;117.20;40.95;;;;;;;18.70;63.47;100898.22;10419750;28;20059;-86
2023/09/18 15:46:17;;;;;;;176.20;38.85;;;;;;;18.04;66.55;100864.03;10427878;28;20064;-86
2023/09/18 15:51:23;;;;;;;132.50;34.80;;;;;;;17.15;69.23;100770.97;10422180;28;20049;-85
2023/09/18 15:56:24;;;;;;;122.32;32.30;;;;;;;17.87;68.31;100927.25;10454939;28;20456;-85
2023/09/18 16:08:24;;;;;;;;;;;;;;;;;;;;;
2023/09/18 16:28:14;;;;;;;;;;;;;;;;;;;;;
2023/09/18 16:41:07;;;;;;;;;;;;;;;;;;;;;
2023/09/18 17:05:28;;;;;;;40.88;11.73;;;;;;;15.18;80.01;100917.16;10497285;28;20083;-84
2023/09/18 17:10:31;;;;;;;38.78;14.73;;;;;;;15.46;82.04;100986.94;10482232;28;20527;-85
2023/09/18 17:15:32;;;;;;;51.00;16.42;;;;;;;15.21;81.66;100956.94;10500220;28;20044;-84
2023/09/18 17:20:33;;;;;;;26.77;13.43;;;;;;;15.16;81.90;100956.63;10500183;28;20049;-84
2023/09/18 17:25:36;;;;;;;26.80;11.45;;;;;;;14.84;82.94;100910.47;10481026;28;20045;-84
2023/09/18 17:30:37;;;;;;;23.57;11.53;;;;;;;14.97;83.07;100939.28;10499487;28;20080;-84
2023/09/18 17:35:45;;;;;;;25.25;10.27;;;;;;;15.09;83.52;100974.44;10481497;28;20534;-85
2023/09/18 17:41:03;;;;;;;;;;;;;;;;;;;;;
2023/09/18 17:59:34;;;;;;;29.17;9.48;;;;;;;13.24;89.23;100709.97;10534308;28;20125;-84
2023/09/18 18:24:12;;;;;;;21.27;10.43;;;;;;;14.25;90.98;100932.47;10402578;28;20053;-83
2023/09/18 18:36:38;;;;;;;21.70;10.88;;;;;;;14.64;91.88;100986.88;10399528;28;20394;-83
2023/09/18 18:42:40;;;;;;;23.85;10.32;;;;;;;13.08;90.79;100774.09;10409357;28;20552;-83
2023/09/18 18:48:27;;;;;;;26.52;11.13;;;;;;;12.62;87.98;100749.09;10405983;28;20046;-83
2023/09/18 19:19:03;;;;;;;33.25;8.63;;;;;;;12.29;93.44;100776.69;10486348;28;20543;-83
2023/09/18 19:30:52;;;;;;;;;;;;;;;;;;;;;
2023/09/18 19:43:38;;;;;;;;;;;;;;;;;;;;;
2023/09/18 19:55:32;;;;;;;;;;;;;;;;;;;;;
2023/09/18 20:00:46;;;;;;;13.35;5.38;;;;;;;12.37;92.26;100853.06;10362403;28;20132;-83
2023/09/18 20:06:11;;;;;;;17.10;5.85;;;;;;;12.16;93.34;100842.91;10474761;28;20082;-84
2023/09/18 20:17:53;;;;;;;;;;;;;;;;;;;;;
2023/09/18 20:23:26;;;;;;;26.20;6.45;;;;;;;11.26;93.75;100699.09;10535203;28;20044;-84
2023/09/18 20:29:00;;;;;;;;;;;;;;;;;;;;;
2023/09/18 20:34:31;;;;;;;25.90;7.70;;;;;;;11.35;93.88;100740.66;10542574;28;20130;-83
2023/09/18 20:39:51;;;;;;;24.25;7.30;;;;;;;11.98;96.05;100840.41;10543662;28;20491;-84
2023/09/18 20:45:16;;;;;;;;;;;;;;;;;;;;;
2023/09/18 20:51:02;;;;;;;15.57;7.00;;;;;;;12.39;96.51;100906.22;10542968;28;20067;-84
2023/09/18 21:02:00;;;;;;;17.55;7.30;;;;;;;11.48;93.66;100812.00;10530801;28;20146;-84
2023/09/18 21:07:01;;;;;;;12.10;6.95;;;;;;;12.27;93.87;100956.31;10543312;28;20150;-83
2023/09/18 21:12:02;;;;;;;16.55;6.85;;;;;;;12.13;94.21;100928.47;10524725;28;20048;-84
2023/09/18 21:17:03;;;;;;;11.90;6.70;;;;;;;11.93;94.51;100900.47;10541967;28;20048;-84
2023/09/18 21:22:16;;;;;;;12.23;6.23;;;;;;;12.32;95.77;100965.50;10541840;28;20101;-84
2023/09/18 21:27:16;;;;;;;9.45;6.28;;;;;;;12.03;94.43;100925.97;10541691;28;20052;-83
2023/09/18 21:32:18;;;;;;;9.20;5.80;;;;;;;10.90;94.70;100749.84;10541566;28;20048;-83
2023/09/18 21:37:19;;;;;;;22.25;6.78;;;;;;;11.78;94.70;100919.69;10540340;28;20408;-84
2023/09/18 21:42:23;;;;;;;9.00;6.22;;;;;;;10.52;95.15;100738.69;10539581;28;20074;-84
2023/09/18 21:47:40;;;;;;;13.25;7.78;;;;;;;10.90;96.14;100794.19;10523353;28;20171;-84
2023/09/18 21:52:48;;;;;;;20.55;9.15;;;;;;;11.52;95.35;100905.66;10540508;28;20097;-84
2023/09/18 21:58:08;;;;;;;22.67;8.68;;;;;;;10.79;95.08;100816.53;10539663;28;20056;-83
2023/09/18 22:03:19;;;;;;;16.38;8.93;;;;;;;10.39;95.39;100769.34;10523118;28;20079;-84
2023/09/18 22:08:29;;;;;;;23.93;9.30;;;;;;;10.40;95.79;100784.28;10539790;28;20087;-83
2023/09/18 22:13:33;;;;;;;24.92;10.75;;;;;;;11.23;96.15;100917.47;10540478;28;20048;-84
2023/09/18 22:18:46;;;;;;;;;;;;;;;;;;;;;
2023/09/18 22:23:57;;;;;;;40.88;11.07;;;;;;;10.59;96.31;100821.28;10540003;28;20048;-84
2023/09/18 22:29:24;;;;;;;38.30;10.90;;;;;;;9.95;96.68;100729.50;10522623;28;20131;-83
2023/09/18 22:34:48;;;;;;;25.10;8.30;;;;;;;10.20;97.75;100776.47;10538417;28;20043;-84
2023/09/18 22:40:04;;;;;;;33.58;8.80;;;;;;;11.62;97.42;100997.66;10539176;28;20098;-84
2023/09/18 22:45:42;;;;;;;27.40;9.07;;;;;;;11.57;97.83;100991.13;10538707;28;20052;-84
2023/09/18 22:51:20;;;;;;;24.23;9.50;;;;;;;11.54;98.79;100989.63;10538096;28;20519;-84
2023/09/18 22:56:25;;;;;;;37.13;9.82;;;;;;;10.94;96.10;100915.97;10556156;28;20134;-84
2023/09/18 23:01:28;;;;;;;18.02;8.35;;;;;;;11.29;96.43;100971.88;10579080;28;20062;-83
2023/09/18 23:06:33;;;;;;;18.33;9.27;;;;;;;11.45;96.72;100987.09;10580043;28;20043;-83
2023/09/18 23:11:37;;;;;;;14.45;8.25;;;;;;;10.30;96.28;100818.06;10579534;28;20051;-83
2023/09/18 23:16:40;;;;;;;14.98;8.93;;;;;;;11.49;96.85;100993.78;10580673;28;20139;-84
2023/09/18 23:21:42;;;;;;;16.13;7.20;;;;;;;10.29;96.31;100793.34;10580227;28;20055;-84
2023/09/18 23:26:48;;;;;;;;;;;;;;;11.68;98.59;100987.38;10562451;28;20043;-84
2023/09/18 23:31:49;;;;;;;9.93;6.30;;;;;;;10.93;95.89;100909.00;10579528;28;19965;-84
2023/09/18 23:36:53;;;;;;;12.50;6.82;;;;;;;10.51;96.10;100850.44;10580266;28;20564;-83
2023/09/18 23:41:56;;;;;;;9.40;6.80;;;;;;;10.17;96.40;100803.34;10578536;28;20048;-84
2023/09/18 23:46:59;;;;;;;8.65;6.63;;;;;;;11.06;96.89;100950.28;10579670;28;20047;-84
2023/09/18 23:52:02;;;;;;;11.50;6.68;;;;;;;10.68;97.14;100926.59;10579042;28;20070;-83
2023/09/18 23:57:07;;;;;;;14.68;7.63;;;;;;;10.74;97.06;100943.75;10579385;28;20043;-84
